Archival Weather

Longyear

Longyear, Svalbard (ENSB)

Report from: Wednesday, December 6, 2023 12:20 PM UTC
Current time: Saturday, March 2, 2024 9:20 AM UTC

Current weather – Weather history – Daily summaries
Weather forecast

Present weatherRESN
Temperature-4.0°C (24.8°F)
Wind chill-10.3°C (13.4°F)
Dew point-9.0°C (15.8°F)
Winds 11 kts (5.7 m/s, 12.7 mph) East-Southeast (120°)
Visibility6.2 mi. (10 km)
Clouds Few clouds 2,000 ft. (610 m)
Scattered clouds 3,500 ft. (1,067 m)
Altimeter30.56 in.Hg (1035 mB)
Relative humidity68 %
Density altitude-3,031 ft. (-924 m)
Remarks No significant changes expected in the next two hours
Flight conditions Visual Meteorological Conditions
Raw dataENSB 061220Z 12011KT 9999 FEW020 SCT035 M04/M09 Q1035 RESN NOSIG RMK WIND 1400FT 10015KT
An error has occurred. This application may no longer respond until reloaded. Reload 🗙